Time;durP1;ratioP1;P1;durP2;ratioP2;P2;SDS_P1;SDS_P2;PMS_P1;PMS_P2;Temp;Humidity;BMP_temperature;BMP_pressure;BME280_temperature;BME280_humidity;BME280_pressure;Samples;Min_cycle;Max_cycle;Signal;HPM_P1;HPM_P2
2023/06/18 00:05:05;;;;;;;;;;;;;;;14.60;85.13;99066.53;4290117;33;35603;-75
2023/06/18 00:14:00;;;;;;;;;;;;;;;15.13;82.30;99060.44;4290049;33;35280;-75
2023/06/18 00:16:46;;;;;;;;;;;;;;;15.50;80.23;99053.94;4289906;33;35586;-74
2023/06/18 00:19:15;;;;;;;;;;;;;;;15.84;78.36;99050.13;4277104;33;33404;-75
2023/06/18 00:22:00;;;;;;;;;;;;;;;15.92;77.72;99045.44;4290001;33;34342;-75
2023/06/18 00:24:52;;;;;;;;;;;;;;;16.10;76.52;99043.88;4277527;33;35416;-74
2023/06/18 00:31:02;;;;;;;;;;;;;;;16.08;76.39;99051.81;4289950;33;35060;-74
2023/06/18 00:37:12;;;;;;;;;;;;;;;16.38;74.95;99056.81;4289840;33;35411;-74
2023/06/18 00:46:07;;;;;;;;;;;;;;;16.70;72.58;99054.69;4289614;33;34878;-74
2023/06/18 00:49:15;;;;;;;;;;;;;;;16.97;71.55;99049.22;4289750;33;36074;-75
2023/06/18 00:51:44;;;;;;;;;;;;;;;17.00;71.51;99054.38;4289688;33;34853;-74
2023/06/18 00:57:59;;;;;;;;;;;;;;;17.02;71.54;99042.84;4289788;33;34289;-75
2023/06/18 01:00:45;;;;;;;;;;;;;;;16.94;71.49;99044.97;4279287;33;35439;-75
2023/06/18 01:03:18;;;;;;;;;;;;;;;16.85;71.71;99054.09;4289455;33;34784;-75
2023/06/18 01:06:10;;;;;;;;;;;;;;;16.86;71.49;99037.38;4274126;33;33935;-74
2023/06/18 01:08:40;;;;;;;;;;;;;;;17.18;70.56;99044.84;4289408;33;34809;-74
2023/06/18 01:11:08;;;;;;;;;;;;;;;17.30;69.68;99054.84;4276729;33;35151;-74
2023/06/18 01:13:42;;;;;;;;;;;;;;;17.16;70.49;99047.53;4276457;33;34651;-75
2023/06/18 01:16:10;;;;;;;;;;;;;;;16.92;71.63;99048.56;4277087;33;33744;-75
2023/06/18 01:18:44;;;;;;;;;;;;;;;16.99;70.99;99050.03;4276366;33;34704;-74
2023/06/18 01:21:20;;;;;;;;;;;;;;;16.96;71.14;99044.88;4276526;33;36158;-75
2023/06/18 01:24:07;;;;;;;;;;;;;;;16.71;72.68;99050.25;4276701;33;35485;-79
2023/06/18 01:26:35;;;;;;;;;;;;;;;16.83;72.25;99036.62;4289244;33;33696;-75
2023/06/18 01:29:09;;;;;;;;;;;;;;;16.63;73.24;99047.97;4276505;33;34202;-74
2023/06/18 01:31:38;;;;;;;;;;;;;;;16.63;73.65;99047.97;4276725;33;35446;-74
2023/06/18 01:34:09;;;;;;;;;;;;;;;16.68;72.87;99051.25;4288097;33;34868;-74
2023/06/18 01:36:47;;;;;;;;;;;;;;;16.58;73.78;99048.13;4276971;33;33791;-75
2023/06/18 01:39:17;;;;;;;;;;;;;;;16.61;73.67;99055.91;4276342;33;35048;-74
2023/06/18 01:41:47;;;;;;;;;;;;;;;16.62;73.51;99057.63;4288879;33;35199;-75
2023/06/18 01:44:18;;;;;;;;;;;;;;;16.39;74.72;99058.50;4276081;33;34463;-76
2023/06/18 01:47:04;;;;;;;;;;;;;;;16.44;74.44;99053.09;4278354;33;33744;-76
2023/06/18 01:49:33;;;;;;;;;;;;;;;16.51;74.33;99058.97;4276187;33;35094;-75
2023/06/18 01:52:01;;;;;;;;;;;;;;;16.23;75.84;99054.78;4275957;33;35007;-76
2023/06/18 01:54:48;;;;;;;;;;;;;;;16.22;75.81;99055.72;4264131;33;34048;-75
2023/06/18 01:57:51;;;;;;;;;;;;;;;16.39;75.24;99058.50;4288696;33;33882;-75
2023/06/18 02:00:37;;;;;;;;;;;;;;;16.08;76.51;99062.31;4289035;33;34110;-75
2023/06/18 02:03:24;;;;;;;;;;;;;;;16.36;75.51;99058.66;4288670;33;35322;-75
2023/06/18 02:05:52;;;;;;;;;;;;;;;16.12;76.60;99058.66;4275812;33;33969;-75
2023/06/18 02:08:20;;;;;;;;;;;;;;;16.18;76.39;99068.06;4291050;33;33555;-75
2023/06/18 02:11:08;;;;;;;;;;;;;;;15.92;77.67;99066.44;4280095;33;35861;-74
2023/06/18 02:13:56;;;;;;;;;;;;;;;16.11;76.81;99072.72;4280096;33;36012;-75
2023/06/18 02:16:41;;;;;;;;;;;;;;;16.04;76.99;99071.25;4290956;33;34816;-75
2023/06/18 02:25:58;;;;;;;;;;;;;;;15.39;81.33;99066.56;4290732;33;36198;-75
2023/06/18 02:29:03;;;;;;;;;;;;;;;15.36;81.67;99067.53;4290850;33;35893;-76
2023/06/18 02:34:55;;;;;;;;;;;;;;;15.29;82.07;99080.00;4290637;33;34265;-75
2023/06/18 02:37:23;;;;;;;;;;;;;;;15.08;83.36;99075.47;4290407;33;36369;-75
2023/06/18 02:39:50;;;;;;;;;;;;;;;14.93;84.15;99076.81;4290932;33;34731;-75
2023/06/18 02:42:20;;;;;;;;;;;;;;;14.55;85.73;99082.38;4290635;33;33629;-75
2023/06/18 02:44:48;;;;;;;;;;;;;;;14.82;83.58;99081.56;4277899;33;34332;-75
2023/06/18 02:47:16;;;;;;;;;;;;;;;14.48;86.91;99087.84;4290445;33;36078;-74
2023/06/18 02:49:44;;;;;;;;;;;;;;;14.25;87.99;99088.56;4290520;33;34702;-75
2023/06/18 02:52:13;;;;;;;;;;;;;;;14.63;85.65;99094.41;4290803;33;34276;-75
2023/06/18 02:54:43;;;;;;;;;;;;;;;14.12;87.69;99096.75;4277899;33;34103;-75
2023/06/18 02:57:11;;;;;;;;;;;;;;;14.28;87.94;99093.72;4290492;33;34260;-75
2023/06/18 02:59:39;;;;;;;;;;;;;;;14.41;87.84;99102.91;4290530;33;34763;-75
2023/06/18 03:02:07;;;;;;;;;;;;;;;14.15;89.39;99104.53;4277811;33;33927;-75
2023/06/18 03:04:35;;;;;;;;;;;;;;;14.33;87.70;99097.00;4277642;33;34862;-76
2023/06/18 03:07:03;;;;;;;;;;;;;;;14.18;88.05;99100.97;4290498;33;35399;-75
2023/06/18 03:09:30;;;;;;;;;;;;;;;14.38;87.93;99100.34;4290737;33;35590;-75
2023/06/18 03:11:59;;;;;;;;;;;;;;;14.53;87.68;99102.53;4290648;33;33866;-75
2023/06/18 03:14:27;;;;;;;;;;;;;;;14.44;87.86;99110.66;4277439;33;35012;-75
2023/06/18 03:16:56;;;;;;;;;;;;;;;14.33;88.30;99111.00;4277687;33;35256;-75
2023/06/18 03:19:25;;;;;;;;;;;;;;;14.39;87.84;99108.19;4290586;33;35537;-75
2023/06/18 03:21:52;;;;;;;;;;;;;;;14.48;89.00;99106.19;4290533;33;33624;-75
2023/06/18 03:24:20;;;;;;;;;;;;;;;14.95;85.66;99109.97;4290527;33;34138;-75
2023/06/18 03:26:48;;;;;;;;;;;;;;;15.06;85.57;99104.38;4290275;33;36176;-75
2023/06/18 03:29:17;;;;;;;;;;;;;;;15.05;85.07;99113.12;4289166;33;34825;-75
2023/06/18 03:31:46;;;;;;;;;;;;;;;14.78;86.76;99109.66;4277663;33;33712;-75
2023/06/18 03:34:14;;;;;;;;;;;;;;;14.73;87.40;99108.94;4290299;33;34167;-76
2023/06/18 03:36:43;;;;;;;;;;;;;;;15.11;86.21;99117.34;4290572;33;35295;-75
2023/06/18 03:39:11;;;;;;;;;;;;;;;15.03;86.49;99114.09;4290235;33;33017;-75
2023/06/18 03:41:39;;;;;;;;;;;;;;;15.12;86.55;99103.31;4290586;33;33646;-76
2023/06/18 03:44:07;;;;;;;;;;;;;;;15.23;86.56;99105.56;4290220;33;34635;-76
2023/06/18 03:46:35;;;;;;;;;;;;;;;15.57;84.35;99107.06;4277351;33;36199;-75
2023/06/18 03:49:03;;;;;;;;;;;;;;;15.70;84.18;99109.19;4277375;33;34727;-76
2023/06/18 03:51:31;;;;;;;;;;;;;;;15.68;84.41;99105.75;4277716;33;33587;-75
2023/06/18 03:53:59;;;;;;;;;;;;;;;15.97;81.67;99106.53;4277448;33;34069;-75
2023/06/18 03:56:27;;;;;;;;;;;;;;;16.00;82.96;99106.41;4289011;33;36159;-76
2023/06/18 03:58:55;;;;;;;;;;;;;;;15.83;85.23;99103.53;4276966;33;34904;-75
2023/06/18 04:01:23;;;;;;;;;;;;;;;15.91;85.67;99107.59;4277068;33;33135;-75
2023/06/18 04:03:51;;;;;;;;;;;;;;;16.19;83.47;99105.72;4277462;33;33924;-75
2023/06/18 04:06:19;;;;;;;;;;;;;;;16.45;82.26;99118.72;4289985;33;35168;-75
2023/06/18 04:08:46;;;;;;;;;;;;;;;16.47;80.64;99111.63;4277403;33;34918;-76
2023/06/18 04:11:15;;;;;;;;;;;;;;;16.75;80.66;99112.34;4290039;33;34481;-75
2023/06/18 04:13:42;;;;;;;;;;;;;;;16.75;80.06;99115.81;4290242;33;34305;-76
2023/06/18 04:16:10;;;;;;;;;;;;;;;17.18;79.34;99114.09;4288977;33;35344;-75
2023/06/18 04:18:38;;;;;;;;;;;;;;;17.22;78.37;99120.97;4290177;33;34971;-75
2023/06/18 04:21:07;;;;;;;;;;;;;;;17.52;76.00;99123.22;4288871;33;34361;-73
2023/06/18 04:27:01;;;;;;;;;;;;;;;17.90;74.58;99123.38;4289954;33;36027;-74
2023/06/18 04:29:30;;;;;;;;;;;;;;;18.13;73.48;99124.13;4289196;33;34879;-76
2023/06/18 04:31:59;;;;;;;;;;;;;;;18.10;71.96;99124.25;4289796;33;33636;-74
2023/06/18 04:34:27;;;;;;;;;;;;;;;17.88;75.21;99119.09;4289883;33;34284;-74
2023/06/18 04:36:54;;;;;;;;;;;;;;;18.21;72.20;99127.25;4290056;33;35407;-75
2023/06/18 04:39:22;;;;;;;;;;;;;;;17.94;74.96;99129.34;4289618;33;34877;-77
2023/06/18 04:41:50;;;;;;;;;;;;;;;18.20;72.45;99133.47;4289842;33;33591;-76
2023/06/18 04:44:18;;;;;;;;;;;;;;;18.16;72.62;99137.16;4276861;33;34231;-74
2023/06/18 04:46:47;;;;;;;;;;;;;;;18.08;75.14;99136.66;4289925;33;35304;-73
2023/06/18 04:49:15;;;;;;;;;;;;;;;18.49;72.66;99142.66;4289861;33;35617;-75
2023/06/18 04:51:44;;;;;;;;;;;;;;;19.02;69.68;99143.69;4290066;33;33661;-75
2023/06/18 04:54:13;;;;;;;;;;;;;;;18.58;70.50;99141.38;4289974;33;35015;-75
2023/06/18 04:56:41;;;;;;;;;;;;;;;18.63;70.27;99143.78;4289784;33;35285;-75
2023/06/18 04:59:09;;;;;;;;;;;;;;;18.96;69.79;99146.66;4289320;33;35567;-74
2023/06/18 05:01:37;;;;;;;;;;;;;;;19.17;68.38;99154.47;4289832;33;33700;-74
2023/06/18 05:04:05;;;;;;;;;;;;;;;18.87;69.14;99153.22;4289507;33;35016;-75
2023/06/18 05:06:33;;;;;;;;;;;;;;;19.30;67.52;99160.81;4276959;33;35117;-76
2023/06/18 05:09:01;;;;;;;;;;;;;;;19.30;66.88;99163.47;4289411;33;34809;-74
2023/06/18 05:11:29;;;;;;;;;;;;;;;19.41;67.26;99162.94;4289352;33;33666;-75
2023/06/18 05:13:56;;;;;;;;;;;;;;;19.65;65.70;99166.12;4289557;33;34092;-76
2023/06/18 05:16:25;;;;;;;;;;;;;;;20.01;66.03;99174.00;4276470;33;35304;-74
2023/06/18 05:18:52;;;;;;;;;;;;;;;19.52;65.15;99171.19;4276193;33;34079;-76
2023/06/18 05:21:20;;;;;;;;;;;;;;;20.15;64.00;99169.75;4289299;33;33587;-74
2023/06/18 05:23:48;;;;;;;;;;;;;;;20.29;64.14;99172.50;4289306;33;34218;-74
2023/06/18 05:26:16;;;;;;;;;;;;;;;20.33;65.13;99178.50;4276219;33;34563;-75
2023/06/18 05:28:43;;;;;;;;;;;;;;;21.04;60.89;99174.66;4276036;33;33523;-75
2023/06/18 05:31:11;;;;;;;;;;;;;;;20.67;62.08;99179.38;4289192;33;33717;-77
2023/06/18 05:33:40;;;;;;;;;;;;;;;21.38;60.66;99176.22;4287973;33;32713;-75
2023/06/18 05:36:08;;;;;;;;;;;;;;;21.10;59.70;99176.94;4289285;33;35070;-75
2023/06/18 05:38:36;;;;;;;;;;;;;;;21.46;59.00;99183.75;4288977;33;35525;-74
2023/06/18 05:41:04;;;;;;;;;;;;;;;21.66;58.79;99185.25;4289350;33;34447;-74
2023/06/18 05:43:31;;;;;;;;;;;;;;;21.91;56.38;99188.13;4291050;33;35129;-77
2023/06/18 05:46:00;;;;;;;;;;;;;;;21.55;56.05;99185.87;4278425;33;35336;-75
2023/06/18 05:48:29;;;;;;;;;;;;;;;21.82;55.88;99198.44;4291174;33;34745;-75
2023/06/18 05:50:57;;;;;;;;;;;;;;;21.85;57.60;99193.81;4291180;33;33664;-76
2023/06/18 05:53:26;;;;;;;;;;;;;;;22.03;56.54;99199.81;4290888;33;34272;-74
2023/06/18 05:55:54;;;;;;;;;;;;;;;22.17;58.76;99198.13;4290882;33;35393;-74
2023/06/18 05:58:22;;;;;;;;;;;;;;;22.58;55.59;99186.78;4291145;33;34819;-74
2023/06/18 06:00:52;;;;;;;;;;;;;;;22.75;53.59;99204.28;4291279;33;32862;-73
2023/06/18 06:03:20;;;;;;;;;;;;;;;22.93;55.15;99210.25;4277829;33;33609;-74
2023/06/18 06:05:47;;;;;;;;;;;;;;;22.95;55.06;99206.53;4290840;33;35399;-76
2023/06/18 06:08:15;;;;;;;;;;;;;;;22.88;53.91;99206.06;4278013;33;34685;-77
2023/06/18 06:10:44;;;;;;;;;;;;;;;23.27;53.57;99207.13;4278254;33;33405;-75
2023/06/18 06:13:12;;;;;;;;;;;;;;;23.41;54.07;99202.72;4291109;33;34149;-74
2023/06/18 06:15:41;;;;;;;;;;;;;;;23.39;54.35;99207.28;4290721;33;35116;-75
2023/06/18 06:18:09;;;;;;;;;;;;;;;23.67;52.79;99212.47;4290634;33;35497;-75
2023/06/18 06:20:37;;;;;;;;;;;;;;;23.74;52.12;99209.41;4290683;33;34355;-75
2023/06/18 06:23:05;;;;;;;;;;;;;;;24.18;49.71;99206.38;4290937;33;34032;-75
2023/06/18 06:25:33;;;;;;;;;;;;;;;23.81;49.91;99213.38;4278051;33;36101;-75
2023/06/18 06:28:00;;;;;;;;;;;;;;;24.10;50.28;99205.22;4290717;33;34792;-75
2023/06/18 06:30:28;;;;;;;;;;;;;;;24.42;49.71;99210.94;4290862;33;34184;-75
2023/06/18 06:32:56;;;;;;;;;;;;;;;24.17;49.69;99214.47;4290846;33;34250;-76
2023/06/18 06:35:24;;;;;;;;;;;;;;;24.55;49.28;99203.00;4290568;33;36115;-77
2023/06/18 06:37:52;;;;;;;;;;;;;;;24.09;51.18;99209.69;4277570;33;35014;-75
2023/06/18 06:40:20;;;;;;;;;;;;;;;24.63;49.65;99213.94;4290924;33;33530;-74
2023/06/18 06:42:48;;;;;;;;;;;;;;;24.87;49.15;99210.50;4290812;33;34210;-75
2023/06/18 06:45:16;;;;;;;;;;;;;;;25.03;47.89;99213.75;4277773;33;34553;-76
2023/06/18 06:47:46;;;;;;;;;;;;;;;25.44;47.57;99219.69;4277459;33;33992;-76
2023/06/18 06:50:15;;;;;;;;;;;;;;;25.01;49.15;99215.69;4290854;33;33145;-79
2023/06/18 06:52:42;;;;;;;;;;;;;;;25.82;46.79;99224.81;4290283;33;34308;-76
2023/06/18 06:55:10;;;;;;;;;;;;;;;25.59;48.87;99217.69;4277608;33;36195;-82
2023/06/18 06:57:38;;;;;;;;;;;;;;;25.39;47.44;99220.03;4277380;33;34229;-76
2023/06/18 07:00:06;;;;;;;;;;;;;;;25.80;48.00;99208.09;4290674;33;33665;-75
2023/06/18 07:02:34;;;;;;;;;;;;;;;26.39;45.83;99212.44;4277541;33;34923;-74
2023/06/18 07:05:02;;;;;;;;;;;;;;;26.62;44.95;99218.66;4277763;33;35228;-75
2023/06/18 07:07:33;;;;;;;;;;;;;;;26.39;45.26;99214.28;4278016;33;34922;-75
2023/06/18 07:10:02;;;;;;;;;;;;;;;26.07;43.08;99212.28;4290432;33;33746;-74
2023/06/18 07:12:29;;;;;;;;;;;;;;;26.35;44.84;99216.34;4277466;33;35058;-75
2023/06/18 07:14:57;;;;;;;;;;;;;;;26.05;46.14;99214.25;4290343;33;35189;-74
2023/06/18 07:17:25;;;;;;;;;;;;;;;25.63;46.79;99213.84;4290400;33;34716;-74
2023/06/18 07:19:55;;;;;;;;;;;;;;;26.52;45.46;99212.31;4277333;33;33712;-74
2023/06/18 07:22:22;;;;;;;;;;;;;;;26.62;45.27;99212.50;4290527;33;34215;-74
2023/06/18 07:24:50;;;;;;;;;;;;;;;26.45;47.18;99203.97;4290338;33;35288;-76
2023/06/18 07:27:18;;;;;;;;;;;;;;;26.51;46.74;99210.66;4290392;33;34713;-76
2023/06/18 07:29:45;;;;;;;;;;;;;;;26.25;48.68;99205.50;4290330;33;34333;-76
2023/06/18 07:32:13;;;;;;;;;;;;;;;26.16;46.33;99206.25;4290382;33;35109;-76
2023/06/18 07:34:41;;;;;;;;;;;;;;;26.44;44.59;99201.41;4277286;33;36060;-75
2023/06/18 07:37:09;;;;;;;;;;;;;;;26.34;47.26;99209.28;4277382;33;34788;-76
2023/06/18 07:39:37;;;;;;;;;;;;;;;26.56;44.14;99212.94;4290315;33;33608;-78
2023/06/18 07:42:05;;;;;;;;;;;;;;;26.59;44.93;99202.84;4290201;33;34124;-77
2023/06/18 07:44:32;;;;;;;;;;;;;;;26.29;45.74;99207.00;4277250;33;36737;-75
2023/06/18 07:47:04;;;;;;;;;;;;;;;25.93;44.13;99199.97;4290295;33;34837;-79
2023/06/18 07:49:31;;;;;;;;;;;;;;;26.74;42.63;99200.81;4277380;33;33596;-78
2023/06/18 07:51:59;;;;;;;;;;;;;;;26.74;42.98;99200.81;4277212;33;34168;-78
2023/06/18 07:54:27;;;;;;;;;;;;;;;26.29;43.64;99204.31;4277136;33;33703;-77
2023/06/18 07:56:55;;;;;;;;;;;;;;;26.94;42.91;99204.56;4289093;33;35243;-79
2023/06/18 07:59:22;;;;;;;;;;;;;;;26.40;42.31;99199.94;4290180;33;33356;-78
2023/06/18 08:01:52;;;;;;;;;;;;;;;27.23;42.27;99201.31;4290252;33;34091;-77
2023/06/18 08:04:20;;;;;;;;;;;;;;;26.90;42.72;99200.44;4289080;33;35325;-76
2023/06/18 08:06:50;;;;;;;;;;;;;;;27.19;41.60;99206.06;4277202;33;35550;-80
2023/06/18 08:09:18;;;;;;;;;;;;;;;27.12;40.43;99204.03;4290030;33;33603;-76
2023/06/18 08:11:46;;;;;;;;;;;;;;;27.63;39.61;99200.72;4290078;33;34346;-78
2023/06/18 08:14:13;;;;;;;;;;;;;;;27.78;40.07;99202.09;4288892;33;36229;-78
2023/06/18 08:16:41;;;;;;;;;;;;;;;27.43;41.26;99203.22;4290028;33;35369;-78
2023/06/18 08:19:09;;;;;;;;;;;;;;;27.60;40.39;99200.97;4289922;33;33778;-77
2023/06/18 08:21:37;;;;;;;;;;;;;;;27.45;39.66;99194.25;4277047;33;34999;-75
2023/06/18 08:24:05;;;;;;;;;;;;;;;27.39;39.87;99200.94;4290121;33;36152;-76
2023/06/18 08:26:33;;;;;;;;;;;;;;;27.57;38.52;99203.91;4288787;33;35385;-75
2023/06/18 08:29:01;;;;;;;;;;;;;;;27.24;40.51;99197.69;4277096;33;33601;-75
2023/06/18 08:31:29;;;;;;;;;;;;;;;27.12;39.71;99204.03;4277096;33;34276;-76
2023/06/18 08:33:57;;;;;;;;;;;;;;;27.57;37.61;99202.09;4277137;33;35300;-76
2023/06/18 08:36:25;;;;;;;;;;;;;;;27.39;39.03;99199.13;4276978;33;34624;-75
2023/06/18 08:38:52;;;;;;;;;;;;;;;27.93;38.94;99199.97;4289527;33;33454;-74
2023/06/18 08:41:21;;;;;;;;;;;;;;;28.02;35.49;99197.50;4276952;33;34226;-75
2023/06/18 08:43:48;;;;;;;;;;;;;;;28.32;36.78;99199.34;4276948;33;35362;-78
2023/06/18 08:46:16;;;;;;;;;;;;;;;28.67;36.38;99188.25;4276838;33;34640;-77
2023/06/18 08:49:01;;;;;;;;;;;;;;;28.11;37.33;99196.69;4276835;33;33723;-76
2023/06/18 08:51:28;;;;;;;;;;;;;;;28.82;36.44;99196.78;4277384;33;35111;-75
2023/06/18 08:53:56;;;;;;;;;;;;;;;28.59;38.48;99195.25;4289654;33;35000;-79
2023/06/18 08:56:24;;;;;;;;;;;;;;;29.12;36.17;99197.69;4289640;33;35569;-75
2023/06/18 08:58:53;;;;;;;;;;;;;;;29.32;36.43;99197.75;4276561;33;32076;-77
2023/06/18 09:01:21;;;;;;;;;;;;;;;29.41;35.48;99192.37;4276612;33;34357;-76
2023/06/18 09:03:51;;;;;;;;;;;;;;;28.83;35.81;99201.13;4276906;33;36066;-78
2023/06/18 09:06:18;;;;;;;;;;;;;;;28.76;37.16;99199.13;4247210;33;975619;-75
2023/06/18 09:08:46;;;;;;;;;;;;;;;29.06;36.75;99198.22;4289680;33;33592;-76
2023/06/18 09:11:15;;;;;;;;;;;;;;;29.26;35.82;99199.13;4276828;33;34318;-76
2023/06/18 09:13:43;;;;;;;;;;;;;;;28.72;35.25;99190.53;4289321;33;36237;-77
2023/06/18 09:16:11;;;;;;;;;;;;;;;28.35;35.11;99194.56;4290476;33;35520;-78
2023/06/18 09:18:39;;;;;;;;;;;;;;;28.99;35.83;99191.72;4278184;33;33139;-78
2023/06/18 09:21:07;;;;;;;;;;;;;;;29.01;36.15;99204.00;4278307;33;35065;-76
2023/06/18 09:23:34;;;;;;;;;;;;;;;29.20;36.78;99203.22;4291024;33;35318;-76
2023/06/18 09:26:02;;;;;;;;;;;;;;;29.21;36.45;99196.88;4291279;33;35540;-77
2023/06/18 09:28:31;;;;;;;;;;;;;;;29.14;38.19;99195.72;4278167;33;34221;-76
2023/06/18 09:31:00;;;;;;;;;;;;;;;29.91;36.13;99199.41;4291122;33;33869;-78
2023/06/18 09:33:28;;;;;;;;;;;;;;;30.30;32.66;99202.00;4278336;33;35369;-77
2023/06/18 09:36:06;;;;;;;;;;;;;;;29.02;35.43;99196.81;4291061;33;34958;-75
2023/06/18 09:38:41;;;;;;;;;;;;;;;29.67;32.61;99197.16;4277971;33;33424;-76
2023/06/18 09:41:11;;;;;;;;;;;;;;;30.05;34.38;99199.00;4278030;33;34075;-76
2023/06/18 09:43:43;;;;;;;;;;;;;;;30.77;31.49;99196.59;4289830;33;35361;-76
2023/06/18 09:46:11;;;;;;;;;;;;;;;30.67;31.88;99201.19;4278164;33;34622;-75
2023/06/18 09:48:41;;;;;;;;;;;;;;;30.54;31.97;99200.69;4291202;33;33743;-76
2023/06/18 09:51:09;;;;;;;;;;;;;;;30.79;30.90;99194.59;4290946;33;35067;-76
2023/06/18 09:53:36;;;;;;;;;;;;;;;29.87;33.42;99198.84;4278186;33;35327;-75
2023/06/18 09:56:11;;;;;;;;;;;;;;;29.82;32.14;99187.69;4290904;33;34987;-77
2023/06/18 09:58:40;;;;;;;;;;;;;;;31.44;29.62;99193.66;4278067;33;33672;-81
2023/06/18 10:01:09;;;;;;;;;;;;;;;32.21;28.86;99196.66;4277914;33;35105;-76
2023/06/18 10:03:37;;;;;;;;;;;;;;;31.74;31.44;99195.09;4290838;33;35336;-79
2023/06/18 10:06:14;;;;;;;;;;;;;;;30.34;33.83;99200.78;4277906;33;34818;-75
2023/06/18 10:08:50;;;;;;;;;;;;;;;30.58;33.86;99196.69;4290788;33;33631;-77
2023/06/18 10:11:18;;;;;;;;;;;;;;;30.19;30.85;99192.28;4278071;33;34189;-75
2023/06/18 10:13:48;;;;;;;;;;;;;;;30.43;33.67;99193.66;4290769;33;35414;-76
2023/06/18 10:16:19;;;;;;;;;;;;;;;30.19;34.12;99191.44;4277773;33;34880;-79
2023/06/18 10:18:53;;;;;;;;;;;;;;;30.41;33.28;99191.13;4277979;33;33703;-76
2023/06/18 10:21:25;;;;;;;;;;;;;;;30.41;31.72;99193.81;4289363;33;33471;-78
2023/06/18 10:23:54;;;;;;;;;;;;;;;30.92;29.82;99201.47;4277887;33;35196;-76
2023/06/18 10:26:22;;;;;;;;;;;;;;;31.71;30.10;99205.34;4277528;33;34774;-75
2023/06/18 10:28:51;;;;;;;;;;;;;;;31.58;28.92;99196.84;4277497;33;33354;-75
2023/06/18 10:31:21;;;;;;;;;;;;;;;31.25;29.60;99196.50;4290642;33;34336;-76
2023/06/18 10:33:49;;;;;;;;;;;;;;;30.44;31.03;99195.34;4277983;33;35259;-78
2023/06/18 10:36:17;;;;;;;;;;;;;;;29.83;33.83;99196.62;4277757;33;34847;-77
2023/06/18 10:38:45;;;;;;;;;;;;;;;29.61;33.52;99187.81;4290433;33;34298;-79
2023/06/18 10:41:14;;;;;;;;;;;;;;;30.15;32.69;99198.13;4277450;33;33179;-77
2023/06/18 10:43:42;;;;;;;;;;;;;;;30.35;32.17;99194.38;4277474;33;38260;-77
2023/06/18 10:46:11;;;;;;;;;;;;;;;30.23;32.63;99193.72;4277461;33;33970;-76
2023/06/18 10:48:40;;;;;;;;;;;;;;;30.30;32.39;99191.25;4290582;33;33626;-75
2023/06/18 10:51:17;;;;;;;;;;;;;;;31.24;31.63;99194.78;4290694;33;34210;-79
2023/06/18 10:53:46;;;;;;;;;;;;;;;31.11;33.68;99187.94;4277736;33;35265;-79
2023/06/18 10:56:14;;;;;;;;;;;;;;;30.68;33.10;99185.91;4277715;33;34856;-77
2023/06/18 10:58:42;;;;;;;;;;;;;;;30.30;33.09;99188.56;4277683;33;33828;-79
2023/06/18 11:01:23;;;;;;;;;;;;;;;31.05;30.58;99185.87;4277552;33;33882;-80
2023/06/18 11:04:01;;;;;;;;;;;;;;;29.84;32.69;99184.87;4277651;33;35199;-76
2023/06/18 11:06:29;;;;;;;;;;;;;;;29.84;34.67;99185.75;4277715;33;34886;-79
2023/06/18 11:08:57;;;;;;;;;;;;;;;29.61;33.17;99187.00;4277590;33;33474;-77
2023/06/18 11:11:25;;;;;;;;;;;;;;;30.68;31.62;99185.91;4290462;33;34095;-75
2023/06/18 11:13:53;;;;;;;;;;;;;;;30.36;32.94;99188.03;4290354;33;35195;-78
2023/06/18 11:16:22;;;;;;;;;;;;;;;30.79;32.27;99186.53;4277611;33;34612;-76
2023/06/18 11:18:50;;;;;;;;;;;;;;;31.02;31.08;99188.00;4290481;33;33697;-77
2023/06/18 11:21:19;;;;;;;;;;;;;;;31.17;30.99;99181.12;4277515;33;34951;-84
2023/06/18 11:23:48;;;;;;;;;;;;;;;32.01;32.20;99178.97;4277496;33;36084;-79
2023/06/18 11:26:16;;;;;;;;;;;;;;;31.61;29.37;99172.28;4277581;33;34814;-76
2023/06/18 11:28:45;;;;;;;;;;;;;;;31.23;30.60;99176.97;4277482;33;34495;-78
2023/06/18 11:31:13;;;;;;;;;;;;;;;30.67;33.37;99168.94;4277479;33;34314;-79
2023/06/18 11:33:46;;;;;;;;;;;;;;;30.41;32.63;99166.09;4290454;33;35307;-77
2023/06/18 11:36:16;;;;;;;;;;;;;;;30.15;33.43;99168.56;4290440;33;34552;-75
2023/06/18 11:38:47;;;;;;;;;;;;;;;30.70;31.95;99168.63;4290183;33;33788;-75
2023/06/18 11:41:20;;;;;;;;;;;;;;;30.51;36.57;99166.03;4277434;33;34215;-78
2023/06/18 11:43:51;;;;;;;;;;;;;;;30.24;33.19;99165.84;4290294;33;35320;-77
2023/06/18 11:46:35;;;;;;;;;;;;;;;30.65;32.87;99160.16;4290308;33;34640;-75
2023/06/18 11:49:03;;;;;;;;;;;;;;;31.15;31.77;99165.13;4290208;33;33655;-75
2023/06/18 11:51:31;;;;;;;;;;;;;;;31.12;31.37;99160.06;4277373;33;33579;-86
2023/06/18 11:54:00;;;;;;;;;;;;;;;31.67;31.66;99152.81;4277522;33;36215;-75
2023/06/18 11:56:28;;;;;;;;;;;;;;;30.94;33.32;99159.19;4290132;33;34902;-76
2023/06/18 11:58:57;;;;;;;;;;;;;;;30.49;35.23;99154.59;4290142;33;34358;-76
2023/06/18 12:01:25;;;;;;;;;;;;;;;31.11;35.04;99154.81;4277148;33;34268;-77
2023/06/18 12:04:00;;;;;;;;;;;;;;;31.49;31.58;99153.69;4277272;33;36135;-82
2023/06/18 12:06:28;;;;;;;;;;;;;;;31.06;32.36;99149.91;4290261;33;34874;-77
2023/06/18 12:09:02;;;;;;;;;;;;;;;31.56;31.67;99138.59;4290065;33;33732;-77
2023/06/18 12:11:36;;;;;;;;;;;;;;;31.35;35.31;99140.75;4290071;33;34248;-75
2023/06/18 12:14:05;;;;;;;;;;;;;;;30.93;31.09;99147.59;4289905;33;35393;-76
2023/06/18 12:16:33;;;;;;;;;;;;;;;30.68;33.20;99135.69;4290018;33;34788;-77
2023/06/18 12:19:01;;;;;;;;;;;;;;;30.92;34.04;99134.25;4277207;33;33547;-79
2023/06/18 12:21:30;;;;;;;;;;;;;;;31.19;33.19;99136.09;4277094;33;34081;-76
2023/06/18 12:23:58;;;;;;;;;;;;;;;31.40;31.28;99140.28;4277079;33;35427;-77
2023/06/18 12:26:27;;;;;;;;;;;;;;;30.79;31.25;99134.63;4277029;33;35584;-76
2023/06/18 12:28:58;;;;;;;;;;;;;;;30.35;32.11;99129.91;4277167;33;34393;-80
2023/06/18 12:31:26;;;;;;;;;;;;;;;30.85;34.97;99130.47;4276984;33;34319;-81
2023/06/18 12:33:53;;;;;;;;;;;;;;;30.94;30.93;99132.31;4289859;33;36047;-75
2023/06/18 12:36:25;;;;;;;;;;;;;;;31.47;29.70;99134.13;4289861;33;35615;-76
2023/06/18 12:38:53;;;;;;;;;;;;;;;30.73;30.47;99132.56;4289673;33;34375;-82
2023/06/18 12:41:22;;;;;;;;;;;;;;;30.91;32.57;99128.03;4276928;33;34328;-77
2023/06/18 12:43:51;;;;;;;;;;;;;;;30.93;29.70;99127.91;4289701;33;35718;-83
2023/06/18 12:46:22;;;;;;;;;;;;;;;31.22;30.14;99125.03;4276894;33;34775;-85
2023/06/18 12:48:51;;;;;;;;;;;;;;;32.39;28.64;99129.22;4276958;33;33876;-84
2023/06/18 12:51:19;;;;;;;;;;;;;;;31.96;29.28;99122.88;4276277;33;34175;-77
2023/06/18 12:53:47;;;;;;;;;;;;;;;31.54;29.88;99132.53;4276744;33;36088;-79
2023/06/18 12:56:19;;;;;;;;;;;;;;;30.92;29.54;99129.78;4289802;33;34772;-80
2023/06/18 12:58:47;;;;;;;;;;;;;;;31.70;29.51;99114.84;4276842;33;34286;-76
2023/06/18 13:01:15;;;;;;;;;;;;;;;31.51;29.37;99116.69;4289625;33;34455;-78
2023/06/18 13:03:43;;;;;;;;;;;;;;;30.25;29.82;99116.50;4289610;33;36250;-75
2023/06/18 13:06:11;;;;;;;;;;;;;;;30.63;30.50;99113.78;4289491;33;35608;-76
2023/06/18 13:08:39;;;;;;;;;;;;;;;30.35;33.03;99110.28;4289591;33;33837;-76
2023/06/18 13:11:07;;;;;;;;;;;;;;;30.31;32.37;99109.69;4289378;33;34978;-77
2023/06/18 13:13:35;;;;;;;;;;;;;;;30.88;29.58;99122.13;4289648;33;35544;-78
2023/06/18 13:16:03;;;;;;;;;;;;;;;31.31;29.70;99116.00;4289379;33;34654;-79
2023/06/18 13:18:31;;;;;;;;;;;;;;;30.22;31.45;99105.22;4276482;33;34484;-76
2023/06/18 13:20:59;;;;;;;;;;;;;;;29.87;32.47;99112.13;4289204;33;34073;-76
2023/06/18 13:23:27;;;;;;;;;;;;;;;30.11;32.64;99102.69;4289408;33;35452;-81
2023/06/18 13:25:56;;;;;;;;;;;;;;;30.38;32.49;99113.50;4289232;33;34647;-78
2023/06/18 13:28:23;;;;;;;;;;;;;;;30.29;31.76;99106.31;4276365;33;34459;-78
2023/06/18 13:30:52;;;;;;;;;;;;;;;30.38;31.95;99102.75;4289294;33;34179;-76
2023/06/18 13:33:19;;;;;;;;;;;;;;;30.67;30.89;99100.91;4289043;33;35375;-79
2023/06/18 13:35:47;;;;;;;;;;;;;;;30.41;31.00;99110.53;4289132;33;34807;-75
2023/06/18 13:38:15;;;;;;;;;;;;;;;29.65;31.05;99102.56;4289085;33;33556;-75
2023/06/18 13:40:43;;;;;;;;;;;;;;;29.36;33.23;99107.94;4288953;33;34997;-77
2023/06/18 13:43:11;;;;;;;;;;;;;;;29.42;34.71;99099.31;4288947;33;35221;-76